sensor_id;sensor_type;location;lat;lon;timestamp;P1;durP1;ratioP1;P2;durP2;ratioP2
62030;SDS011;62035;52.094;5.112;2022-11-25T00:01:10;15.13;;;3.22;;
62030;SDS011;62035;52.094;5.112;2022-11-25T00:03:40;16.35;;;3.42;;
62030;SDS011;62035;52.094;5.112;2022-11-25T00:06:10;20.08;;;3.88;;
62030;SDS011;62035;52.094;5.112;2022-11-25T00:08:40;18.83;;;3.88;;
62030;SDS011;62035;52.094;5.112;2022-11-25T00:11:09;20.63;;;4.50;;
62030;SDS011;62035;52.094;5.112;2022-11-25T00:13:40;15.85;;;3.58;;
62030;SDS011;62035;52.094;5.112;2022-11-25T00:16:10;22.15;;;3.75;;
62030;SDS011;62035;52.094;5.112;2022-11-25T00:18:42;16.77;;;3.63;;
62030;SDS011;62035;52.094;5.112;2022-11-25T00:21:11;14.40;;;3.35;;
62030;SDS011;62035;52.094;5.112;2022-11-25T00:23:42;20.17;;;4.13;;
62030;SDS011;62035;52.094;5.112;2022-11-25T00:26:12;22.67;;;4.10;;
62030;SDS011;62035;52.094;5.112;2022-11-25T00:31:12;20.63;;;3.65;;
62030;SDS011;62035;52.094;5.112;2022-11-25T00:33:43;17.83;;;5.32;;
62030;SDS011;62035;52.094;5.112;2022-11-25T00:36:13;22.30;;;4.25;;
62030;SDS011;62035;52.094;5.112;2022-11-25T00:38:44;20.65;;;4.00;;
62030;SDS011;62035;52.094;5.112;2022-11-25T00:41:14;19.08;;;3.28;;
62030;SDS011;62035;52.094;5.112;2022-11-25T00:43:58;18.73;;;3.53;;
62030;SDS011;62035;52.094;5.112;2022-11-25T00:46:44;22.95;;;4.13;;
62030;SDS011;62035;52.094;5.112;2022-11-25T00:49:11;24.10;;;4.03;;
62030;SDS011;62035;52.094;5.112;2022-11-25T00:51:39;22.17;;;4.00;;
62030;SDS011;62035;52.094;5.112;2022-11-25T00:54:07;19.50;;;3.40;;
62030;SDS011;62035;52.094;5.112;2022-11-25T00:56:36;19.38;;;4.28;;
62030;SDS011;62035;52.094;5.112;2022-11-25T00:59:03;16.15;;;3.80;;
62030;SDS011;62035;52.094;5.112;2022-11-25T01:01:31;23.35;;;4.22;;
62030;SDS011;62035;52.094;5.112;2022-11-25T01:03:58;23.65;;;4.38;;
62030;SDS011;62035;52.094;5.112;2022-11-25T01:06:26;21.13;;;3.35;;
62030;SDS011;62035;52.094;5.112;2022-11-25T01:08:54;23.23;;;3.70;;
62030;SDS011;62035;52.094;5.112;2022-11-25T01:11:22;20.35;;;4.05;;
62030;SDS011;62035;52.094;5.112;2022-11-25T01:13:51;24.35;;;4.88;;
62030;SDS011;62035;52.094;5.112;2022-11-25T01:16:21;20.70;;;3.65;;
62030;SDS011;62035;52.094;5.112;2022-11-25T01:18:49;36.33;;;10.43;;
62030;SDS011;62035;52.094;5.112;2022-11-25T01:21:18;20.30;;;5.40;;
62030;SDS011;62035;52.094;5.112;2022-11-25T01:23:49;25.20;;;5.65;;
62030;SDS011;62035;52.094;5.112;2022-11-25T01:26:18;30.65;;;5.65;;
62030;SDS011;62035;52.094;5.112;2022-11-25T01:28:48;23.70;;;4.03;;
62030;SDS011;62035;52.094;5.112;2022-11-25T01:31:23;19.85;;;4.25;;
62030;SDS011;62035;52.094;5.112;2022-11-25T01:33:53;12.27;;;3.72;;
62030;SDS011;62035;52.094;5.112;2022-11-25T01:36:24;13.73;;;3.47;;
62030;SDS011;62035;52.094;5.112;2022-11-25T01:38:52;16.02;;;3.17;;
62030;SDS011;62035;52.094;5.112;2022-11-25T01:41:23;24.80;;;2.83;;
62030;SDS011;62035;52.094;5.112;2022-11-25T01:44:04;19.95;;;3.90;;
62030;SDS011;62035;52.094;5.112;2022-11-25T01:46:43;19.80;;;3.72;;
62030;SDS011;62035;52.094;5.112;2022-11-25T01:49:26;23.23;;;3.72;;
62030;SDS011;62035;52.094;5.112;2022-11-25T01:52:05;19.38;;;3.22;;
62030;SDS011;62035;52.094;5.112;2022-11-25T01:54:42;17.17;;;3.70;;
62030;SDS011;62035;52.094;5.112;2022-11-25T01:57:20;17.55;;;3.80;;
62030;SDS011;62035;52.094;5.112;2022-11-25T01:59:55;12.65;;;3.40;;
62030;SDS011;62035;52.094;5.112;2022-11-25T02:02:28;14.52;;;3.38;;
62030;SDS011;62035;52.094;5.112;2022-11-25T02:04:56;17.58;;;3.72;;
62030;SDS011;62035;52.094;5.112;2022-11-25T02:07:26;16.90;;;3.90;;
62030;SDS011;62035;52.094;5.112;2022-11-25T02:10:00;17.02;;;3.33;;
62030;SDS011;62035;52.094;5.112;2022-11-25T02:12:30;26.50;;;3.95;;
62030;SDS011;62035;52.094;5.112;2022-11-25T02:15:02;12.70;;;2.80;;
62030;SDS011;62035;52.094;5.112;2022-11-25T02:17:31;18.45;;;3.53;;
62030;SDS011;62035;52.094;5.112;2022-11-25T02:20:00;16.77;;;3.90;;
62030;SDS011;62035;52.094;5.112;2022-11-25T02:22:38;19.55;;;3.95;;
62030;SDS011;62035;52.094;5.112;2022-11-25T02:25:19;17.77;;;3.90;;
62030;SDS011;62035;52.094;5.112;2022-11-25T02:27:51;20.65;;;3.40;;
62030;SDS011;62035;52.094;5.112;2022-11-25T02:30:27;21.48;;;3.40;;
62030;SDS011;62035;52.094;5.112;2022-11-25T02:32:57;18.60;;;3.28;;
62030;SDS011;62035;52.094;5.112;2022-11-25T02:35:26;17.85;;;3.28;;
62030;SDS011;62035;52.094;5.112;2022-11-25T02:37:58;19.42;;;3.00;;
62030;SDS011;62035;52.094;5.112;2022-11-25T02:40:35;17.75;;;3.00;;
62030;SDS011;62035;52.094;5.112;2022-11-25T02:43:09;19.50;;;3.13;;
62030;SDS011;62035;52.094;5.112;2022-11-25T02:45:43;19.23;;;3.75;;
62030;SDS011;62035;52.094;5.112;2022-11-25T02:48:17;17.65;;;3.33;;
62030;SDS011;62035;52.094;5.112;2022-11-25T02:50:45;13.10;;;3.22;;
62030;SDS011;62035;52.094;5.112;2022-11-25T02:53:13;19.85;;;3.47;;
62030;SDS011;62035;52.094;5.112;2022-11-25T02:55:43;17.55;;;3.30;;
62030;SDS011;62035;52.094;5.112;2022-11-25T02:58:12;14.32;;;2.90;;
62030;SDS011;62035;52.094;5.112;2022-11-25T03:00:40;13.82;;;2.92;;
62030;SDS011;62035;52.094;5.112;2022-11-25T03:03:09;18.73;;;3.33;;
62030;SDS011;62035;52.094;5.112;2022-11-25T03:05:37;15.00;;;3.20;;
62030;SDS011;62035;52.094;5.112;2022-11-25T03:08:05;20.25;;;3.53;;
62030;SDS011;62035;52.094;5.112;2022-11-25T03:10:34;14.52;;;3.45;;
62030;SDS011;62035;52.094;5.112;2022-11-25T03:13:03;16.13;;;3.17;;
62030;SDS011;62035;52.094;5.112;2022-11-25T03:15:33;12.77;;;3.13;;
62030;SDS011;62035;52.094;5.112;2022-11-25T03:18:03;17.00;;;4.43;;
62030;SDS011;62035;52.094;5.112;2022-11-25T03:20:32;15.18;;;3.45;;
62030;SDS011;62035;52.094;5.112;2022-11-25T03:23:00;15.25;;;3.17;;
62030;SDS011;62035;52.094;5.112;2022-11-25T03:25:28;13.00;;;3.78;;
62030;SDS011;62035;52.094;5.112;2022-11-25T03:27:55;18.13;;;3.63;;
62030;SDS011;62035;52.094;5.112;2022-11-25T03:30:25;17.67;;;3.67;;
62030;SDS011;62035;52.094;5.112;2022-11-25T03:32:55;15.50;;;3.72;;
62030;SDS011;62035;52.094;5.112;2022-11-25T03:35:23;15.80;;;3.67;;
62030;SDS011;62035;52.094;5.112;2022-11-25T03:37:50;15.45;;;2.90;;
62030;SDS011;62035;52.094;5.112;2022-11-25T03:40:18;16.38;;;3.50;;
62030;SDS011;62035;52.094;5.112;2022-11-25T03:42:46;11.15;;;3.70;;
62030;SDS011;62035;52.094;5.112;2022-11-25T03:45:14;16.85;;;3.25;;
62030;SDS011;62035;52.094;5.112;2022-11-25T03:47:44;13.85;;;2.72;;
62030;SDS011;62035;52.094;5.112;2022-11-25T03:50:12;9.23;;;2.58;;
62030;SDS011;62035;52.094;5.112;2022-11-25T03:52:41;11.07;;;2.75;;
62030;SDS011;62035;52.094;5.112;2022-11-25T03:55:09;12.45;;;2.80;;
62030;SDS011;62035;52.094;5.112;2022-11-25T03:57:37;14.13;;;2.97;;
62030;SDS011;62035;52.094;5.112;2022-11-25T04:00:05;9.35;;;2.55;;
62030;SDS011;62035;52.094;5.112;2022-11-25T04:02:35;10.10;;;2.35;;
62030;SDS011;62035;52.094;5.112;2022-11-25T04:05:04;10.13;;;2.30;;
62030;SDS011;62035;52.094;5.112;2022-11-25T04:07:33;11.18;;;2.63;;
62030;SDS011;62035;52.094;5.112;2022-11-25T04:10:00;8.48;;;2.55;;
62030;SDS011;62035;52.094;5.112;2022-11-25T04:12:28;7.20;;;1.77;;
62030;SDS011;62035;52.094;5.112;2022-11-25T04:15:14;9.57;;;2.05;;
62030;SDS011;62035;52.094;5.112;2022-11-25T04:17:43;5.25;;;1.65;;
62030;SDS011;62035;52.094;5.112;2022-11-25T04:20:13;5.80;;;1.83;;
62030;SDS011;62035;52.094;5.112;2022-11-25T04:22:41;7.15;;;1.70;;
62030;SDS011;62035;52.094;5.112;2022-11-25T04:25:09;7.72;;;1.73;;
62030;SDS011;62035;52.094;5.112;2022-11-25T04:27:37;6.65;;;1.77;;
62030;SDS011;62035;52.094;5.112;2022-11-25T04:30:05;10.27;;;1.80;;
62030;SDS011;62035;52.094;5.112;2022-11-25T04:32:35;7.55;;;1.60;;
62030;SDS011;62035;52.094;5.112;2022-11-25T04:35:04;10.05;;;2.10;;
62030;SDS011;62035;52.094;5.112;2022-11-25T04:37:34;7.63;;;1.90;;
62030;SDS011;62035;52.094;5.112;2022-11-25T04:40:02;4.28;;;1.73;;
62030;SDS011;62035;52.094;5.112;2022-11-25T04:42:31;5.30;;;1.50;;
62030;SDS011;62035;52.094;5.112;2022-11-25T04:44:59;5.47;;;1.33;;
62030;SDS011;62035;52.094;5.112;2022-11-25T04:47:30;4.47;;;1.40;;
62030;SDS011;62035;52.094;5.112;2022-11-25T04:49:58;5.30;;;1.63;;
62030;SDS011;62035;52.094;5.112;2022-11-25T04:52:25;5.55;;;1.50;;
62030;SDS011;62035;52.094;5.112;2022-11-25T04:54:54;7.30;;;1.88;;
62030;SDS011;62035;52.094;5.112;2022-11-25T04:57:22;6.97;;;1.95;;
62030;SDS011;62035;52.094;5.112;2022-11-25T04:59:50;7.93;;;1.70;;
62030;SDS011;62035;52.094;5.112;2022-11-25T05:02:17;4.97;;;1.50;;
62030;SDS011;62035;52.094;5.112;2022-11-25T05:04:48;8.02;;;1.65;;
62030;SDS011;62035;52.094;5.112;2022-11-25T05:07:19;7.13;;;1.45;;
62030;SDS011;62035;52.094;5.112;2022-11-25T05:09:48;9.35;;;1.63;;
62030;SDS011;62035;52.094;5.112;2022-11-25T05:12:18;6.95;;;1.52;;
62030;SDS011;62035;52.094;5.112;2022-11-25T05:17:16;4.55;;;1.52;;
62030;SDS011;62035;52.094;5.112;2022-11-25T05:19:47;5.60;;;1.17;;
62030;SDS011;62035;52.094;5.112;2022-11-25T05:22:16;4.40;;;1.55;;
62030;SDS011;62035;52.094;5.112;2022-11-25T05:24:47;7.60;;;1.92;;
62030;SDS011;62035;52.094;5.112;2022-11-25T05:27:15;4.65;;;1.60;;
62030;SDS011;62035;52.094;5.112;2022-11-25T05:29:44;6.05;;;1.38;;
62030;SDS011;62035;52.094;5.112;2022-11-25T05:32:12;4.25;;;1.30;;
62030;SDS011;62035;52.094;5.112;2022-11-25T05:34:41;5.35;;;1.60;;
62030;SDS011;62035;52.094;5.112;2022-11-25T05:37:09;6.68;;;2.00;;
62030;SDS011;62035;52.094;5.112;2022-11-25T05:39:40;5.78;;;1.48;;
62030;SDS011;62035;52.094;5.112;2022-11-25T05:42:07;7.43;;;2.00;;
62030;SDS011;62035;52.094;5.112;2022-11-25T05:44:35;7.10;;;1.98;;
62030;SDS011;62035;52.094;5.112;2022-11-25T05:47:04;8.63;;;1.88;;
62030;SDS011;62035;52.094;5.112;2022-11-25T05:49:31;6.93;;;1.80;;
62030;SDS011;62035;52.094;5.112;2022-11-25T05:51:59;8.60;;;1.67;;
62030;SDS011;62035;52.094;5.112;2022-11-25T05:54:27;7.85;;;1.67;;
62030;SDS011;62035;52.094;5.112;2022-11-25T05:56:54;3.85;;;1.95;;
62030;SDS011;62035;52.094;5.112;2022-11-25T05:59:22;7.28;;;2.10;;
62030;SDS011;62035;52.094;5.112;2022-11-25T06:01:51;5.72;;;1.90;;
62030;SDS011;62035;52.094;5.112;2022-11-25T06:04:20;8.05;;;2.58;;
62030;SDS011;62035;52.094;5.112;2022-11-25T06:06:48;4.97;;;1.85;;
62030;SDS011;62035;52.094;5.112;2022-11-25T06:09:15;5.45;;;1.80;;
62030;SDS011;62035;52.094;5.112;2022-11-25T06:11:43;4.88;;;1.95;;
62030;SDS011;62035;52.094;5.112;2022-11-25T06:14:10;7.28;;;1.83;;
62030;SDS011;62035;52.094;5.112;2022-11-25T06:16:39;6.20;;;1.98;;
62030;SDS011;62035;52.094;5.112;2022-11-25T06:19:07;7.35;;;1.92;;
62030;SDS011;62035;52.094;5.112;2022-11-25T06:21:36;10.05;;;1.98;;
62030;SDS011;62035;52.094;5.112;2022-11-25T06:24:04;10.05;;;2.15;;
62030;SDS011;62035;52.094;5.112;2022-11-25T06:26:32;6.15;;;1.98;;
62030;SDS011;62035;52.094;5.112;2022-11-25T06:29:00;6.05;;;2.50;;
62030;SDS011;62035;52.094;5.112;2022-11-25T06:31:27;4.28;;;2.10;;
62030;SDS011;62035;52.094;5.112;2022-11-25T06:33:55;10.88;;;2.75;;
62030;SDS011;62035;52.094;5.112;2022-11-25T06:36:22;7.53;;;2.20;;
62030;SDS011;62035;52.094;5.112;2022-11-25T06:38:52;6.47;;;2.67;;
62030;SDS011;62035;52.094;5.112;2022-11-25T06:41:21;9.05;;;2.92;;
62030;SDS011;62035;52.094;5.112;2022-11-25T06:43:49;8.55;;;3.00;;
62030;SDS011;62035;52.094;5.112;2022-11-25T06:46:18;5.88;;;3.00;;
62030;SDS011;62035;52.094;5.112;2022-11-25T06:48:46;8.98;;;2.80;;
62030;SDS011;62035;52.094;5.112;2022-11-25T06:51:14;8.15;;;2.88;;
62030;SDS011;62035;52.094;5.112;2022-11-25T06:53:43;9.07;;;3.17;;
62030;SDS011;62035;52.094;5.112;2022-11-25T06:56:12;9.90;;;3.20;;
62030;SDS011;62035;52.094;5.112;2022-11-25T07:01:12;7.20;;;2.90;;
62030;SDS011;62035;52.094;5.112;2022-11-25T07:03:42;10.35;;;3.13;;
62030;SDS011;62035;52.094;5.112;2022-11-25T07:06:13;12.95;;;3.70;;
62030;SDS011;62035;52.094;5.112;2022-11-25T07:08:42;7.78;;;3.10;;
62030;SDS011;62035;52.094;5.112;2022-11-25T07:11:13;12.75;;;3.30;;
62030;SDS011;62035;52.094;5.112;2022-11-25T07:13:45;9.25;;;3.75;;
62030;SDS011;62035;52.094;5.112;2022-11-25T07:16:13;12.85;;;3.90;;
62030;SDS011;62035;52.094;5.112;2022-11-25T07:18:41;8.77;;;3.50;;
62030;SDS011;62035;52.094;5.112;2022-11-25T07:21:10;7.97;;;3.38;;
62030;SDS011;62035;52.094;5.112;2022-11-25T07:23:40;8.50;;;3.30;;
62030;SDS011;62035;52.094;5.112;2022-11-25T07:26:10;13.00;;;3.70;;
62030;SDS011;62035;52.094;5.112;2022-11-25T07:28:41;10.68;;;3.63;;
62030;SDS011;62035;52.094;5.112;2022-11-25T07:31:14;8.85;;;4.10;;
62030;SDS011;62035;52.094;5.112;2022-11-25T07:33:44;9.90;;;3.47;;
62030;SDS011;62035;52.094;5.112;2022-11-25T07:36:12;11.07;;;3.67;;
62030;SDS011;62035;52.094;5.112;2022-11-25T07:38:41;7.70;;;3.65;;
62030;SDS011;62035;52.094;5.112;2022-11-25T07:41:10;11.50;;;3.95;;
62030;SDS011;62035;52.094;5.112;2022-11-25T07:43:43;12.43;;;3.92;;
62030;SDS011;62035;52.094;5.112;2022-11-25T07:46:13;10.82;;;3.92;;
62030;SDS011;62035;52.094;5.112;2022-11-25T07:48:43;9.38;;;3.88;;
62030;SDS011;62035;52.094;5.112;2022-11-25T07:51:14;7.22;;;3.70;;
62030;SDS011;62035;52.094;5.112;2022-11-25T07:53:44;12.23;;;4.05;;
62030;SDS011;62035;52.094;5.112;2022-11-25T07:56:15;11.13;;;3.60;;
62030;SDS011;62035;52.094;5.112;2022-11-25T07:58:44;8.27;;;3.78;;
62030;SDS011;62035;52.094;5.112;2022-11-25T08:01:12;16.77;;;4.30;;
62030;SDS011;62035;52.094;5.112;2022-11-25T08:03:42;11.65;;;4.13;;
62030;SDS011;62035;52.094;5.112;2022-11-25T08:06:12;9.45;;;4.28;;
62030;SDS011;62035;52.094;5.112;2022-11-25T08:08:43;10.30;;;3.90;;
62030;SDS011;62035;52.094;5.112;2022-11-25T08:11:12;12.77;;;4.20;;
62030;SDS011;62035;52.094;5.112;2022-11-25T08:13:43;11.45;;;4.15;;
62030;SDS011;62035;52.094;5.112;2022-11-25T08:16:12;8.98;;;3.60;;
62030;SDS011;62035;52.094;5.112;2022-11-25T08:18:41;10.68;;;3.92;;
62030;SDS011;62035;52.094;5.112;2022-11-25T08:21:10;11.02;;;4.57;;
62030;SDS011;62035;52.094;5.112;2022-11-25T08:23:40;14.88;;;4.20;;
62030;SDS011;62035;52.094;5.112;2022-11-25T08:26:09;9.50;;;4.00;;
62030;SDS011;62035;52.094;5.112;2022-11-25T08:28:41;7.97;;;3.80;;
62030;SDS011;62035;52.094;5.112;2022-11-25T08:31:10;10.30;;;3.67;;
62030;SDS011;62035;52.094;5.112;2022-11-25T08:33:40;8.77;;;3.72;;
62030;SDS011;62035;52.094;5.112;2022-11-25T08:36:09;13.60;;;3.80;;
62030;SDS011;62035;52.094;5.112;2022-11-25T08:38:37;9.77;;;3.58;;
62030;SDS011;62035;52.094;5.112;2022-11-25T08:41:07;7.53;;;3.78;;
62030;SDS011;62035;52.094;5.112;2022-11-25T08:43:37;9.20;;;3.15;;
62030;SDS011;62035;52.094;5.112;2022-11-25T08:46:08;8.50;;;3.53;;
62030;SDS011;62035;52.094;5.112;2022-11-25T08:48:38;13.32;;;4.07;;
62030;SDS011;62035;52.094;5.112;2022-11-25T08:51:07;9.00;;;3.33;;
62030;SDS011;62035;52.094;5.112;2022-11-25T08:53:37;12.48;;;3.75;;
62030;SDS011;62035;52.094;5.112;2022-11-25T08:56:06;11.10;;;3.50;;
62030;SDS011;62035;52.094;5.112;2022-11-25T08:58:35;11.82;;;3.42;;
62030;SDS011;62035;52.094;5.112;2022-11-25T09:01:04;9.15;;;3.20;;
62030;SDS011;62035;52.094;5.112;2022-11-25T09:03:34;11.55;;;3.40;;
62030;SDS011;62035;52.094;5.112;2022-11-25T09:06:04;11.05;;;3.90;;
62030;SDS011;62035;52.094;5.112;2022-11-25T09:08:33;8.35;;;3.40;;
62030;SDS011;62035;52.094;5.112;2022-11-25T09:11:02;8.90;;;3.38;;
62030;SDS011;62035;52.094;5.112;2022-11-25T09:13:31;9.13;;;3.42;;
62030;SDS011;62035;52.094;5.112;2022-11-25T09:15:59;8.95;;;3.47;;
62030;SDS011;62035;52.094;5.112;2022-11-25T09:18:27;11.77;;;3.92;;
62030;SDS011;62035;52.094;5.112;2022-11-25T09:20:56;9.23;;;3.50;;
62030;SDS011;62035;52.094;5.112;2022-11-25T09:23:25;13.55;;;3.47;;
62030;SDS011;62035;52.094;5.112;2022-11-25T09:25:54;8.20;;;3.22;;
62030;SDS011;62035;52.094;5.112;2022-11-25T09:28:23;13.70;;;3.40;;
62030;SDS011;62035;52.094;5.112;2022-11-25T09:30:53;8.38;;;3.35;;
62030;SDS011;62035;52.094;5.112;2022-11-25T09:33:21;8.63;;;3.22;;
62030;SDS011;62035;52.094;5.112;2022-11-25T09:35:49;11.48;;;3.03;;
62030;SDS011;62035;52.094;5.112;2022-11-25T09:38:18;8.50;;;3.33;;
62030;SDS011;62035;52.094;5.112;2022-11-25T09:40:47;10.43;;;3.38;;
62030;SDS011;62035;52.094;5.112;2022-11-25T09:43:30;10.27;;;2.85;;
62030;SDS011;62035;52.094;5.112;2022-11-25T09:46:43;11.60;;;3.40;;
62030;SDS011;62035;52.094;5.112;2022-11-25T09:49:33;11.40;;;3.00;;
62030;SDS011;62035;52.094;5.112;2022-11-25T09:52:20;13.18;;;2.92;;
62030;SDS011;62035;52.094;5.112;2022-11-25T09:55:03;7.15;;;2.60;;
62030;SDS011;62035;52.094;5.112;2022-11-25T09:57:49;9.70;;;3.15;;
62030;SDS011;62035;52.094;5.112;2022-11-25T10:00:32;10.93;;;2.97;;
62030;SDS011;62035;52.094;5.112;2022-11-25T10:03:10;11.30;;;3.35;;
62030;SDS011;62035;52.094;5.112;2022-11-25T10:06:00;10.10;;;2.90;;
62030;SDS011;62035;52.094;5.112;2022-11-25T10:08:34;13.32;;;3.33;;
62030;SDS011;62035;52.094;5.112;2022-11-25T10:11:10;8.05;;;2.95;;
62030;SDS011;62035;52.094;5.112;2022-11-25T10:13:54;9.15;;;3.10;;
62030;SDS011;62035;52.094;5.112;2022-11-25T10:16:33;8.77;;;2.70;;
62030;SDS011;62035;52.094;5.112;2022-11-25T10:21:48;10.00;;;3.05;;
62030;SDS011;62035;52.094;5.112;2022-11-25T10:24:16;9.95;;;3.42;;
62030;SDS011;62035;52.094;5.112;2022-11-25T10:26:52;9.73;;;3.22;;
62030;SDS011;62035;52.094;5.112;2022-11-25T10:29:28;9.23;;;3.22;;
62030;SDS011;62035;52.094;5.112;2022-11-25T10:32:01;12.90;;;3.25;;
62030;SDS011;62035;52.094;5.112;2022-11-25T10:34:46;14.20;;;3.70;;
62030;SDS011;62035;52.094;5.112;2022-11-25T10:37:22;13.82;;;4.32;;
62030;SDS011;62035;52.094;5.112;2022-11-25T10:39:55;14.68;;;3.78;;
62030;SDS011;62035;52.094;5.112;2022-11-25T10:42:25;11.70;;;3.58;;
62030;SDS011;62035;52.094;5.112;2022-11-25T10:44:54;13.00;;;3.67;;
62030;SDS011;62035;52.094;5.112;2022-11-25T10:47:25;15.80;;;3.83;;
62030;SDS011;62035;52.094;5.112;2022-11-25T10:50:15;12.55;;;3.90;;
62030;SDS011;62035;52.094;5.112;2022-11-25T10:52:55;17.55;;;4.70;;
62030;SDS011;62035;52.094;5.112;2022-11-25T10:55:29;10.68;;;3.92;;
62030;SDS011;62035;52.094;5.112;2022-11-25T10:57:59;11.60;;;3.60;;
62030;SDS011;62035;52.094;5.112;2022-11-25T11:01:00;18.98;;;4.10;;
62030;SDS011;62035;52.094;5.112;2022-11-25T11:03:38;11.80;;;3.50;;
62030;SDS011;62035;52.094;5.112;2022-11-25T11:06:19;13.60;;;4.38;;
62030;SDS011;62035;52.094;5.112;2022-11-25T11:08:58;16.70;;;3.17;;
62030;SDS011;62035;52.094;5.112;2022-11-25T11:11:25;10.48;;;3.13;;
62030;SDS011;62035;52.094;5.112;2022-11-25T11:13:58;8.00;;;2.83;;
62030;SDS011;62035;52.094;5.112;2022-11-25T11:16:40;14.50;;;3.60;;
62030;SDS011;62035;52.094;5.112;2022-11-25T11:19:21;12.65;;;3.35;;
62030;SDS011;62035;52.094;5.112;2022-11-25T11:21:52;9.32;;;3.25;;
62030;SDS011;62035;52.094;5.112;2022-11-25T11:24:25;13.90;;;2.97;;
62030;SDS011;62035;52.094;5.112;2022-11-25T11:27:00;11.55;;;2.67;;
62030;SDS011;62035;52.094;5.112;2022-11-25T11:29:32;13.63;;;3.17;;
62030;SDS011;62035;52.094;5.112;2022-11-25T11:32:00;11.90;;;2.85;;
62030;SDS011;62035;52.094;5.112;2022-11-25T11:34:53;18.17;;;2.63;;
62030;SDS011;62035;52.094;5.112;2022-11-25T11:37:37;13.75;;;2.85;;
62030;SDS011;62035;52.094;5.112;2022-11-25T11:40:23;15.13;;;3.03;;
62030;SDS011;62035;52.094;5.112;2022-11-25T11:43:05;9.75;;;2.90;;
62030;SDS011;62035;52.094;5.112;2022-11-25T11:45:58;10.50;;;2.80;;
62030;SDS011;62035;52.094;5.112;2022-11-25T11:48:43;10.10;;;2.35;;
62030;SDS011;62035;52.094;5.112;2022-11-25T11:51:25;11.63;;;2.55;;
62030;SDS011;62035;52.094;5.112;2022-11-25T11:54:06;14.65;;;3.33;;
62030;SDS011;62035;52.094;5.112;2022-11-25T11:56:43;13.18;;;2.85;;
62030;SDS011;62035;52.094;5.112;2022-11-25T11:59:26;10.65;;;2.38;;
62030;SDS011;62035;52.094;5.112;2022-11-25T12:02:21;9.90;;;2.50;;
62030;SDS011;62035;52.094;5.112;2022-11-25T12:05:12;9.38;;;2.10;;
62030;SDS011;62035;52.094;5.112;2022-11-25T12:07:46;14.52;;;2.63;;
62030;SDS011;62035;52.094;5.112;2022-11-25T12:10:29;7.38;;;2.03;;
62030;SDS011;62035;52.094;5.112;2022-11-25T12:13:04;7.47;;;1.98;;
62030;SDS011;62035;52.094;5.112;2022-11-25T12:15:43;11.32;;;2.50;;
62030;SDS011;62035;52.094;5.112;2022-11-25T12:18:23;10.52;;;2.10;;
62030;SDS011;62035;52.094;5.112;2022-11-25T12:21:05;15.48;;;2.38;;
62030;SDS011;62035;52.094;5.112;2022-11-25T12:23:47;10.88;;;2.85;;
62030;SDS011;62035;52.094;5.112;2022-11-25T12:26:29;13.77;;;2.20;;
62030;SDS011;62035;52.094;5.112;2022-11-25T12:29:11;8.20;;;1.85;;
62030;SDS011;62035;52.094;5.112;2022-11-25T12:31:49;11.18;;;2.33;;
62030;SDS011;62035;52.094;5.112;2022-11-25T12:34:32;15.88;;;2.80;;
62030;SDS011;62035;52.094;5.112;2022-11-25T12:37:11;13.13;;;2.40;;
62030;SDS011;62035;52.094;5.112;2022-11-25T12:39:55;16.00;;;2.67;;
62030;SDS011;62035;52.094;5.112;2022-11-25T12:42:33;13.80;;;2.60;;
62030;SDS011;62035;52.094;5.112;2022-11-25T12:45:06;14.52;;;2.47;;
62030;SDS011;62035;52.094;5.112;2022-11-25T12:47:44;17.10;;;3.20;;
62030;SDS011;62035;52.094;5.112;2022-11-25T12:50:15;11.35;;;2.80;;
62030;SDS011;62035;52.094;5.112;2022-11-25T12:52:48;18.25;;;3.35;;
62030;SDS011;62035;52.094;5.112;2022-11-25T12:55:26;15.30;;;2.95;;
62030;SDS011;62035;52.094;5.112;2022-11-25T13:01:15;14.07;;;2.40;;
62030;SDS011;62035;52.094;5.112;2022-11-25T13:07:44;10.40;;;2.15;;
62030;SDS011;62035;52.094;5.112;2022-11-25T13:10:37;9.48;;;2.22;;
62030;SDS011;62035;52.094;5.112;2022-11-25T13:13:31;16.38;;;2.83;;
62030;SDS011;62035;52.094;5.112;2022-11-25T13:16:15;19.75;;;3.00;;
62030;SDS011;62035;52.094;5.112;2022-11-25T13:18:45;17.00;;;3.50;;
62030;SDS011;62035;52.094;5.112;2022-11-25T13:21:13;16.60;;;3.38;;
62030;SDS011;62035;52.094;5.112;2022-11-25T13:23:45;13.40;;;2.45;;
62030;SDS011;62035;52.094;5.112;2022-11-25T13:32:27;17.40;;;2.80;;
62030;SDS011;62035;52.094;5.112;2022-11-25T13:38:07;17.75;;;2.72;;
62030;SDS011;62035;52.094;5.112;2022-11-25T13:41:23;20.67;;;3.10;;
62030;SDS011;62035;52.094;5.112;2022-11-25T13:44:03;12.52;;;2.58;;
62030;SDS011;62035;52.094;5.112;2022-11-25T13:46:39;11.90;;;2.78;;
62030;SDS011;62035;52.094;5.112;2022-11-25T13:49:32;16.45;;;3.13;;
62030;SDS011;62035;52.094;5.112;2022-11-25T13:52:27;20.40;;;3.00;;
62030;SDS011;62035;52.094;5.112;2022-11-25T13:55:05;14.00;;;2.55;;
62030;SDS011;62035;52.094;5.112;2022-11-25T13:58:00;15.93;;;3.50;;
62030;SDS011;62035;52.094;5.112;2022-11-25T14:00:49;13.07;;;2.75;;
62030;SDS011;62035;52.094;5.112;2022-11-25T14:03:42;15.05;;;3.15;;
62030;SDS011;62035;52.094;5.112;2022-11-25T14:09:35;12.93;;;3.05;;
62030;SDS011;62035;52.094;5.112;2022-11-25T14:12:37;20.13;;;3.00;;
62030;SDS011;62035;52.094;5.112;2022-11-25T14:15:33;18.20;;;2.83;;
62030;SDS011;62035;52.094;5.112;2022-11-25T14:18:20;17.60;;;3.30;;
62030;SDS011;62035;52.094;5.112;2022-11-25T14:21:12;23.63;;;5.70;;
62030;SDS011;62035;52.094;5.112;2022-11-25T14:24:14;16.10;;;3.78;;
62030;SDS011;62035;52.094;5.112;2022-11-25T14:26:56;13.75;;;3.05;;
62030;SDS011;62035;52.094;5.112;2022-11-25T14:29:27;16.02;;;3.25;;
62030;SDS011;62035;52.094;5.112;2022-11-25T14:32:06;20.90;;;2.95;;
62030;SDS011;62035;52.094;5.112;2022-11-25T14:34:40;24.90;;;3.58;;
62030;SDS011;62035;52.094;5.112;2022-11-25T14:37:13;19.45;;;3.47;;
62030;SDS011;62035;52.094;5.112;2022-11-25T14:39:49;17.38;;;2.85;;
62030;SDS011;62035;52.094;5.112;2022-11-25T14:42:24;14.13;;;3.33;;
62030;SDS011;62035;52.094;5.112;2022-11-25T14:45:01;17.92;;;2.95;;
62030;SDS011;62035;52.094;5.112;2022-11-25T14:47:31;15.75;;;3.75;;
62030;SDS011;62035;52.094;5.112;2022-11-25T14:49:59;24.02;;;3.33;;
62030;SDS011;62035;52.094;5.112;2022-11-25T14:52:27;20.48;;;3.55;;
62030;SDS011;62035;52.094;5.112;2022-11-25T14:54:59;19.55;;;3.85;;
62030;SDS011;62035;52.094;5.112;2022-11-25T14:57:31;13.00;;;3.10;;
62030;SDS011;62035;52.094;5.112;2022-11-25T15:00:03;17.38;;;3.10;;
62030;SDS011;62035;52.094;5.112;2022-11-25T15:02:38;8.70;;;2.38;;
62030;SDS011;62035;52.094;5.112;2022-11-25T15:05:18;21.45;;;2.72;;
62030;SDS011;62035;52.094;5.112;2022-11-25T15:08:01;17.43;;;2.60;;
62030;SDS011;62035;52.094;5.112;2022-11-25T15:10:37;20.45;;;2.70;;
62030;SDS011;62035;52.094;5.112;2022-11-25T15:13:13;20.80;;;3.40;;
62030;SDS011;62035;52.094;5.112;2022-11-25T15:15:55;14.15;;;3.20;;
62030;SDS011;62035;52.094;5.112;2022-11-25T15:18:33;19.52;;;3.42;;
62030;SDS011;62035;52.094;5.112;2022-11-25T15:21:04;15.00;;;2.70;;
62030;SDS011;62035;52.094;5.112;2022-11-25T15:23:33;13.48;;;2.90;;
62030;SDS011;62035;52.094;5.112;2022-11-25T15:26:13;22.35;;;3.40;;
62030;SDS011;62035;52.094;5.112;2022-11-25T15:28:44;20.05;;;4.05;;
62030;SDS011;62035;52.094;5.112;2022-11-25T15:31:15;22.35;;;3.90;;
62030;SDS011;62035;52.094;5.112;2022-11-25T15:33:49;19.00;;;3.92;;
62030;SDS011;62035;52.094;5.112;2022-11-25T15:36:22;20.33;;;3.63;;
62030;SDS011;62035;52.094;5.112;2022-11-25T15:38:51;15.30;;;3.22;;
62030;SDS011;62035;52.094;5.112;2022-11-25T15:41:23;20.52;;;5.03;;
62030;SDS011;62035;52.094;5.112;2022-11-25T15:43:59;18.40;;;3.78;;